sensor_id;sensor_type;location;lat;lon;timestamp;P1;durP1;ratioP1;P2;durP2;ratioP2
38085;SDS011;23896;50.678;10.924;2023-04-01T00:01:02;3.65;;;1.45;;
38085;SDS011;23896;50.678;10.924;2023-04-01T00:03:34;2.58;;;0.98;;
38085;SDS011;23896;50.678;10.924;2023-04-01T00:06:04;4.05;;;2.03;;
38085;SDS011;23896;50.678;10.924;2023-04-01T00:08:45;2.33;;;1.38;;
38085;SDS011;23896;50.678;10.924;2023-04-01T00:14:01;4.03;;;1.52;;
38085;SDS011;23896;50.678;10.924;2023-04-01T00:16:27;2.50;;;1.27;;
38085;SDS011;23896;50.678;10.924;2023-04-01T00:19:00;4.65;;;1.27;;
38085;SDS011;23896;50.678;10.924;2023-04-01T00:21:44;2.92;;;1.23;;
38085;SDS011;23896;50.678;10.924;2023-04-01T00:24:11;3.35;;;1.25;;
38085;SDS011;23896;50.678;10.924;2023-04-01T00:26:39;3.90;;;1.60;;
38085;SDS011;23896;50.678;10.924;2023-04-01T00:29:09;7.90;;;1.70;;
38085;SDS011;23896;50.678;10.924;2023-04-01T00:31:47;1.88;;;1.02;;
38085;SDS011;23896;50.678;10.924;2023-04-01T00:34:14;3.55;;;1.20;;
38085;SDS011;23896;50.678;10.924;2023-04-01T00:36:40;1.85;;;1.20;;
38085;SDS011;23896;50.678;10.924;2023-04-01T00:39:11;2.97;;;1.00;;
38085;SDS011;23896;50.678;10.924;2023-04-01T00:49:45;3.30;;;1.23;;
38085;SDS011;23896;50.678;10.924;2023-04-01T00:52:38;4.38;;;1.23;;
38085;SDS011;23896;50.678;10.924;2023-04-01T00:55:28;3.22;;;1.10;;
38085;SDS011;23896;50.678;10.924;2023-04-01T00:58:38;3.00;;;0.93;;
38085;SDS011;23896;50.678;10.924;2023-04-01T01:06:48;2.13;;;0.90;;
38085;SDS011;23896;50.678;10.924;2023-04-01T01:09:40;1.10;;;0.80;;
38085;SDS011;23896;50.678;10.924;2023-04-01T01:12:17;1.63;;;1.02;;
38085;SDS011;23896;50.678;10.924;2023-04-01T01:17:53;2.60;;;1.40;;
38085;SDS011;23896;50.678;10.924;2023-04-01T01:21:10;1.85;;;1.23;;
38085;SDS011;23896;50.678;10.924;2023-04-01T01:24:02;2.95;;;1.10;;
38085;SDS011;23896;50.678;10.924;2023-04-01T01:29:59;2.50;;;0.85;;
38085;SDS011;23896;50.678;10.924;2023-04-01T01:38:56;1.67;;;0.95;;
38085;SDS011;23896;50.678;10.924;2023-04-01T01:42:03;1.48;;;0.90;;
38085;SDS011;23896;50.678;10.924;2023-04-01T01:48:01;2.35;;;1.00;;
38085;SDS011;23896;50.678;10.924;2023-04-01T01:57:13;1.30;;;0.98;;
38085;SDS011;23896;50.678;10.924;2023-04-01T01:59:44;0.82;;;0.80;;
38085;SDS011;23896;50.678;10.924;2023-04-01T02:02:52;0.93;;;0.80;;
38085;SDS011;23896;50.678;10.924;2023-04-01T02:05:28;2.60;;;1.05;;
38085;SDS011;23896;50.678;10.924;2023-04-01T02:08:57;1.35;;;0.85;;
38085;SDS011;23896;50.678;10.924;2023-04-01T02:11:41;1.27;;;0.90;;
38085;SDS011;23896;50.678;10.924;2023-04-01T02:23:55;2.70;;;1.13;;
38085;SDS011;23896;50.678;10.924;2023-04-01T02:26:22;2.13;;;1.20;;
38085;SDS011;23896;50.678;10.924;2023-04-01T02:28:59;1.13;;;0.95;;
38085;SDS011;23896;50.678;10.924;2023-04-01T02:31:32;1.30;;;0.98;;
38085;SDS011;23896;50.678;10.924;2023-04-01T02:33:59;1.35;;;0.90;;
38085;SDS011;23896;50.678;10.924;2023-04-01T02:42:00;1.48;;;0.80;;
38085;SDS011;23896;50.678;10.924;2023-04-01T02:44:45;2.60;;;0.82;;
38085;SDS011;23896;50.678;10.924;2023-04-01T02:47:17;2.22;;;0.70;;
38085;SDS011;23896;50.678;10.924;2023-04-01T02:49:50;3.83;;;1.10;;
38085;SDS011;23896;50.678;10.924;2023-04-01T02:52:23;1.33;;;1.00;;
38085;SDS011;23896;50.678;10.924;2023-04-01T02:54:58;2.55;;;0.73;;
38085;SDS011;23896;50.678;10.924;2023-04-01T02:57:42;3.13;;;1.10;;
38085;SDS011;23896;50.678;10.924;2023-04-01T03:00:17;5.57;;;0.88;;
38085;SDS011;23896;50.678;10.924;2023-04-01T03:02:47;2.58;;;0.88;;
38085;SDS011;23896;50.678;10.924;2023-04-01T03:05:56;3.17;;;1.05;;
38085;SDS011;23896;50.678;10.924;2023-04-01T03:08:21;1.17;;;1.00;;
38085;SDS011;23896;50.678;10.924;2023-04-01T03:10:58;1.92;;;1.00;;
38085;SDS011;23896;50.678;10.924;2023-04-01T03:17:01;3.80;;;0.90;;
38085;SDS011;23896;50.678;10.924;2023-04-01T03:19:47;1.80;;;1.00;;
38085;SDS011;23896;50.678;10.924;2023-04-01T03:22:21;3.28;;;1.33;;
38085;SDS011;23896;50.678;10.924;2023-04-01T03:31:12;2.87;;;1.00;;
38085;SDS011;23896;50.678;10.924;2023-04-01T03:36:44;3.20;;;1.10;;
38085;SDS011;23896;50.678;10.924;2023-04-01T03:39:18;2.35;;;1.27;;
38085;SDS011;23896;50.678;10.924;2023-04-01T03:41:56;1.40;;;0.90;;
38085;SDS011;23896;50.678;10.924;2023-04-01T03:44:31;2.72;;;1.35;;
38085;SDS011;23896;50.678;10.924;2023-04-01T03:47:08;2.05;;;1.13;;
38085;SDS011;23896;50.678;10.924;2023-04-01T03:49:38;2.28;;;0.90;;
38085;SDS011;23896;50.678;10.924;2023-04-01T03:52:17;0.95;;;0.90;;
38085;SDS011;23896;50.678;10.924;2023-04-01T03:54:53;4.35;;;1.00;;
38085;SDS011;23896;50.678;10.924;2023-04-01T03:57:28;3.85;;;1.20;;
38085;SDS011;23896;50.678;10.924;2023-04-01T04:00:26;1.02;;;0.75;;
38085;SDS011;23896;50.678;10.924;2023-04-01T04:03:02;1.75;;;1.20;;
38085;SDS011;23896;50.678;10.924;2023-04-01T04:05:46;2.13;;;1.17;;
38085;SDS011;23896;50.678;10.924;2023-04-01T04:11:39;3.67;;;1.08;;
38085;SDS011;23896;50.678;10.924;2023-04-01T04:14:26;4.72;;;1.70;;
38085;SDS011;23896;50.678;10.924;2023-04-01T04:16:52;4.75;;;1.50;;
38085;SDS011;23896;50.678;10.924;2023-04-01T04:19:18;1.23;;;0.90;;
38085;SDS011;23896;50.678;10.924;2023-04-01T04:21:53;2.33;;;1.02;;
38085;SDS011;23896;50.678;10.924;2023-04-01T04:24:22;1.25;;;1.00;;
38085;SDS011;23896;50.678;10.924;2023-04-01T04:29:57;4.60;;;1.10;;
38085;SDS011;23896;50.678;10.924;2023-04-01T04:38:50;1.55;;;0.90;;
38085;SDS011;23896;50.678;10.924;2023-04-01T04:41:41;1.13;;;0.77;;
38085;SDS011;23896;50.678;10.924;2023-04-01T04:44:10;3.78;;;0.80;;
38085;SDS011;23896;50.678;10.924;2023-04-01T04:46:42;1.58;;;0.90;;
38085;SDS011;23896;50.678;10.924;2023-04-01T04:49:17;1.02;;;0.80;;
38085;SDS011;23896;50.678;10.924;2023-04-01T04:51:46;3.72;;;0.93;;
38085;SDS011;23896;50.678;10.924;2023-04-01T04:54:19;2.15;;;0.70;;
38085;SDS011;23896;50.678;10.924;2023-04-01T04:56:50;1.83;;;1.13;;
38085;SDS011;23896;50.678;10.924;2023-04-01T04:59:17;2.88;;;1.00;;
38085;SDS011;23896;50.678;10.924;2023-04-01T05:01:48;2.63;;;1.00;;
38085;SDS011;23896;50.678;10.924;2023-04-01T05:04:18;5.93;;;1.10;;
38085;SDS011;23896;50.678;10.924;2023-04-01T05:06:51;2.63;;;1.05;;
38085;SDS011;23896;50.678;10.924;2023-04-01T05:09:19;2.45;;;1.02;;
38085;SDS011;23896;50.678;10.924;2023-04-01T05:11:47;2.67;;;1.20;;
38085;SDS011;23896;50.678;10.924;2023-04-01T05:14:14;3.67;;;3.08;;
38085;SDS011;23896;50.678;10.924;2023-04-01T05:16:43;2.38;;;1.73;;
38085;SDS011;23896;50.678;10.924;2023-04-01T05:19:11;1.27;;;0.80;;
38085;SDS011;23896;50.678;10.924;2023-04-01T05:22:00;2.92;;;1.00;;
38085;SDS011;23896;50.678;10.924;2023-04-01T05:24:31;2.72;;;0.90;;
38085;SDS011;23896;50.678;10.924;2023-04-01T05:27:26;2.53;;;1.00;;
38085;SDS011;23896;50.678;10.924;2023-04-01T05:52:09;1.08;;;0.98;;
38085;SDS011;23896;50.678;10.924;2023-04-01T05:54:59;2.50;;;1.08;;
38085;SDS011;23896;50.678;10.924;2023-04-01T05:57:39;1.75;;;1.00;;
38085;SDS011;23896;50.678;10.924;2023-04-01T06:00:40;2.42;;;1.00;;
38085;SDS011;23896;50.678;10.924;2023-04-01T06:03:06;1.10;;;1.00;;
38085;SDS011;23896;50.678;10.924;2023-04-01T06:05:38;3.80;;;1.15;;
38085;SDS011;23896;50.678;10.924;2023-04-01T06:08:09;2.85;;;1.00;;
38085;SDS011;23896;50.678;10.924;2023-04-01T06:10:48;2.67;;;1.08;;
38085;SDS011;23896;50.678;10.924;2023-04-01T06:13:26;3.08;;;1.30;;
38085;SDS011;23896;50.678;10.924;2023-04-01T06:16:09;1.20;;;1.10;;
38085;SDS011;23896;50.678;10.924;2023-04-01T06:18:52;2.45;;;1.10;;
38085;SDS011;23896;50.678;10.924;2023-04-01T06:24:49;1.65;;;1.00;;
38085;SDS011;23896;50.678;10.924;2023-04-01T06:40:13;2.13;;;0.80;;
38085;SDS011;23896;50.678;10.924;2023-04-01T08:40:55;0.88;;;0.73;;
38085;SDS011;23896;50.678;10.924;2023-04-01T08:43:33;0.80;;;0.60;;
38085;SDS011;23896;50.678;10.924;2023-04-01T08:46:10;1.15;;;0.90;;
38085;SDS011;23896;50.678;10.924;2023-04-01T09:04:39;0.63;;;0.63;;
38085;SDS011;23896;50.678;10.924;2023-04-01T09:07:20;1.38;;;0.70;;
38085;SDS011;23896;50.678;10.924;2023-04-01T09:10:06;2.10;;;0.80;;
38085;SDS011;23896;50.678;10.924;2023-04-01T09:13:19;0.70;;;0.70;;
38085;SDS011;23896;50.678;10.924;2023-04-01T10:46:59;1.50;;;1.40;;
38085;SDS011;23896;50.678;10.924;2023-04-01T10:55:07;0.77;;;0.60;;
38085;SDS011;23896;50.678;10.924;2023-04-01T10:57:45;0.50;;;0.50;;
38085;SDS011;23896;50.678;10.924;2023-04-01T11:00:28;0.85;;;0.70;;
38085;SDS011;23896;50.678;10.924;2023-04-01T11:03:30;0.50;;;0.50;;
38085;SDS011;23896;50.678;10.924;2023-04-01T11:11:54;0.60;;;0.60;;
38085;SDS011;23896;50.678;10.924;2023-04-01T11:14:36;0.75;;;0.75;;
38085;SDS011;23896;50.678;10.924;2023-04-01T11:17:15;0.77;;;0.75;;
38085;SDS011;23896;50.678;10.924;2023-04-01T11:22:53;0.50;;;0.50;;
38085;SDS011;23896;50.678;10.924;2023-04-01T11:28:16;0.63;;;0.60;;
38085;SDS011;23896;50.678;10.924;2023-04-01T11:30:58;0.60;;;0.60;;
38085;SDS011;23896;50.678;10.924;2023-04-01T11:36:08;0.60;;;0.60;;
38085;SDS011;23896;50.678;10.924;2023-04-01T11:38:49;0.50;;;0.50;;
38085;SDS011;23896;50.678;10.924;2023-04-01T11:41:31;0.60;;;0.60;;
38085;SDS011;23896;50.678;10.924;2023-04-01T11:46:57;0.60;;;0.60;;
38085;SDS011;23896;50.678;10.924;2023-04-01T11:49:33;0.70;;;0.70;;
38085;SDS011;23896;50.678;10.924;2023-04-01T11:55:14;1.10;;;0.90;;
38085;SDS011;23896;50.678;10.924;2023-04-01T11:58:15;0.60;;;0.60;;
38085;SDS011;23896;50.678;10.924;2023-04-01T12:00:55;0.80;;;0.80;;
38085;SDS011;23896;50.678;10.924;2023-04-01T12:03:43;0.70;;;0.70;;
38085;SDS011;23896;50.678;10.924;2023-04-01T12:06:19;0.88;;;0.82;;
38085;SDS011;23896;50.678;10.924;2023-04-01T12:09:03;0.70;;;0.70;;
38085;SDS011;23896;50.678;10.924;2023-04-01T12:11:44;0.63;;;0.63;;
38085;SDS011;23896;50.678;10.924;2023-04-01T12:17:15;0.70;;;0.70;;
38085;SDS011;23896;50.678;10.924;2023-04-01T12:19:52;0.85;;;0.85;;
38085;SDS011;23896;50.678;10.924;2023-04-01T12:22:32;0.70;;;0.70;;
38085;SDS011;23896;50.678;10.924;2023-04-01T12:30:39;0.75;;;0.70;;
38085;SDS011;23896;50.678;10.924;2023-04-01T12:38:39;0.60;;;0.60;;
38085;SDS011;23896;50.678;10.924;2023-04-01T12:41:14;0.50;;;0.50;;
38085;SDS011;23896;50.678;10.924;2023-04-01T12:46:49;0.57;;;0.57;;
38085;SDS011;23896;50.678;10.924;2023-04-01T12:49:55;0.60;;;0.60;;
38085;SDS011;23896;50.678;10.924;2023-04-01T12:52:33;0.50;;;0.50;;
38085;SDS011;23896;50.678;10.924;2023-04-01T12:55:18;1.55;;;0.50;;
38085;SDS011;23896;50.678;10.924;2023-04-01T12:57:57;0.70;;;0.70;;
38085;SDS011;23896;50.678;10.924;2023-04-01T13:00:31;0.50;;;0.50;;
38085;SDS011;23896;50.678;10.924;2023-04-01T13:03:06;0.55;;;0.55;;
38085;SDS011;23896;50.678;10.924;2023-04-01T13:05:48;0.70;;;0.70;;
38085;SDS011;23896;50.678;10.924;2023-04-01T13:08:27;1.85;;;0.60;;
38085;SDS011;23896;50.678;10.924;2023-04-01T13:11:07;0.98;;;0.77;;
38085;SDS011;23896;50.678;10.924;2023-04-01T13:13:40;0.77;;;0.70;;
38085;SDS011;23896;50.678;10.924;2023-04-01T13:16:24;1.20;;;0.77;;
38085;SDS011;23896;50.678;10.924;2023-04-01T13:19:03;0.85;;;0.70;;
38085;SDS011;23896;50.678;10.924;2023-04-01T13:21:48;0.70;;;0.70;;
38085;SDS011;23896;50.678;10.924;2023-04-01T13:24:29;1.08;;;0.90;;
38085;SDS011;23896;50.678;10.924;2023-04-01T13:27:09;0.70;;;0.70;;
38085;SDS011;23896;50.678;10.924;2023-04-01T13:32:42;0.60;;;0.60;;
38085;SDS011;23896;50.678;10.924;2023-04-01T13:35:39;0.60;;;0.60;;
38085;SDS011;23896;50.678;10.924;2023-04-01T13:38:16;1.27;;;1.13;;
38085;SDS011;23896;50.678;10.924;2023-04-01T13:40:55;0.80;;;0.80;;
38085;SDS011;23896;50.678;10.924;2023-04-01T13:43:32;0.67;;;0.50;;
38085;SDS011;23896;50.678;10.924;2023-04-01T13:46:08;0.70;;;0.70;;
38085;SDS011;23896;50.678;10.924;2023-04-01T13:52:03;1.20;;;1.10;;
38085;SDS011;23896;50.678;10.924;2023-04-01T13:54:46;0.60;;;0.60;;
38085;SDS011;23896;50.678;10.924;2023-04-01T13:57:48;0.50;;;0.50;;
38085;SDS011;23896;50.678;10.924;2023-04-01T14:00:42;0.60;;;0.60;;
38085;SDS011;23896;50.678;10.924;2023-04-01T14:03:28;0.50;;;0.50;;
38085;SDS011;23896;50.678;10.924;2023-04-01T14:06:13;0.40;;;0.40;;
38085;SDS011;23896;50.678;10.924;2023-04-01T14:11:40;0.50;;;0.50;;
38085;SDS011;23896;50.678;10.924;2023-04-01T14:17:21;0.52;;;0.52;;
38085;SDS011;23896;50.678;10.924;2023-04-01T14:20:08;0.63;;;0.63;;
38085;SDS011;23896;50.678;10.924;2023-04-01T14:22:56;0.60;;;0.60;;
38085;SDS011;23896;50.678;10.924;2023-04-01T14:25:33;0.60;;;0.60;;
38085;SDS011;23896;50.678;10.924;2023-04-01T14:28:09;0.50;;;0.50;;
38085;SDS011;23896;50.678;10.924;2023-04-01T14:30:58;0.63;;;0.63;;
38085;SDS011;23896;50.678;10.924;2023-04-01T14:33:46;0.52;;;0.52;;
38085;SDS011;23896;50.678;10.924;2023-04-01T14:36:30;1.55;;;0.60;;
38085;SDS011;23896;50.678;10.924;2023-04-01T14:47:14;0.80;;;0.80;;
38085;SDS011;23896;50.678;10.924;2023-04-01T14:50:05;0.68;;;0.68;;
38085;SDS011;23896;50.678;10.924;2023-04-01T14:52:55;0.50;;;0.50;;
38085;SDS011;23896;50.678;10.924;2023-04-01T14:55:28;0.60;;;0.60;;
38085;SDS011;23896;50.678;10.924;2023-04-01T14:57:57;0.60;;;0.60;;
38085;SDS011;23896;50.678;10.924;2023-04-01T15:00:24;0.65;;;0.65;;
38085;SDS011;23896;50.678;10.924;2023-04-01T15:02:56;0.50;;;0.50;;
38085;SDS011;23896;50.678;10.924;2023-04-01T15:05:32;0.50;;;0.50;;
38085;SDS011;23896;50.678;10.924;2023-04-01T15:08:08;0.57;;;0.57;;
38085;SDS011;23896;50.678;10.924;2023-04-01T15:10:42;0.50;;;0.50;;
38085;SDS011;23896;50.678;10.924;2023-04-01T15:15:49;0.70;;;0.70;;
38085;SDS011;23896;50.678;10.924;2023-04-01T15:18:30;1.25;;;1.15;;
38085;SDS011;23896;50.678;10.924;2023-04-01T15:21:08;1.13;;;0.70;;
38085;SDS011;23896;50.678;10.924;2023-04-01T15:23:49;2.65;;;1.10;;
38085;SDS011;23896;50.678;10.924;2023-04-01T15:26:26;0.52;;;0.52;;
38085;SDS011;23896;50.678;10.924;2023-04-01T15:29:02;0.60;;;0.60;;
38085;SDS011;23896;50.678;10.924;2023-04-01T15:31:46;0.60;;;0.60;;
38085;SDS011;23896;50.678;10.924;2023-04-01T15:36:43;1.75;;;0.80;;
38085;SDS011;23896;50.678;10.924;2023-04-01T15:39:14;0.57;;;0.57;;
38085;SDS011;23896;50.678;10.924;2023-04-01T15:44:26;0.85;;;0.85;;
38085;SDS011;23896;50.678;10.924;2023-04-01T15:46:59;1.38;;;1.27;;
38085;SDS011;23896;50.678;10.924;2023-04-01T15:49:30;0.70;;;0.70;;
38085;SDS011;23896;50.678;10.924;2023-04-01T15:52:15;0.70;;;0.70;;
38085;SDS011;23896;50.678;10.924;2023-04-01T15:57:46;0.70;;;0.70;;
38085;SDS011;23896;50.678;10.924;2023-04-01T16:00:41;0.50;;;0.50;;
38085;SDS011;23896;50.678;10.924;2023-04-01T16:03:20;0.70;;;0.70;;
38085;SDS011;23896;50.678;10.924;2023-04-01T16:05:55;2.15;;;0.70;;
38085;SDS011;23896;50.678;10.924;2023-04-01T16:08:41;0.70;;;0.70;;
38085;SDS011;23896;50.678;10.924;2023-04-01T16:11:14;0.60;;;0.60;;
38085;SDS011;23896;50.678;10.924;2023-04-01T16:16:41;0.70;;;0.70;;
38085;SDS011;23896;50.678;10.924;2023-04-01T16:22:17;0.70;;;0.70;;
38085;SDS011;23896;50.678;10.924;2023-04-01T16:25:14;0.50;;;0.50;;
38085;SDS011;23896;50.678;10.924;2023-04-01T16:27:53;0.82;;;0.70;;
38085;SDS011;23896;50.678;10.924;2023-04-01T16:30:33;0.75;;;0.75;;
38085;SDS011;23896;50.678;10.924;2023-04-01T16:33:12;0.90;;;0.90;;
38085;SDS011;23896;50.678;10.924;2023-04-01T16:35:50;0.88;;;0.88;;
38085;SDS011;23896;50.678;10.924;2023-04-01T16:38:24;0.70;;;0.70;;
38085;SDS011;23896;50.678;10.924;2023-04-01T16:40:57;0.70;;;0.70;;
38085;SDS011;23896;50.678;10.924;2023-04-01T16:43:42;1.20;;;1.00;;
38085;SDS011;23896;50.678;10.924;2023-04-01T16:51:33;0.85;;;0.60;;
38085;SDS011;23896;50.678;10.924;2023-04-01T16:54:02;0.65;;;0.65;;
38085;SDS011;23896;50.678;10.924;2023-04-01T16:56:38;0.80;;;0.80;;
38085;SDS011;23896;50.678;10.924;2023-04-01T17:01:40;1.90;;;0.88;;
38085;SDS011;23896;50.678;10.924;2023-04-01T17:04:10;1.88;;;1.52;;
38085;SDS011;23896;50.678;10.924;2023-04-01T17:06:45;2.47;;;1.77;;
38085;SDS011;23896;50.678;10.924;2023-04-01T17:09:31;1.05;;;1.05;;
38085;SDS011;23896;50.678;10.924;2023-04-01T17:12:17;0.70;;;0.70;;
38085;SDS011;23896;50.678;10.924;2023-04-01T17:15:05;0.60;;;0.60;;
38085;SDS011;23896;50.678;10.924;2023-04-01T17:17:49;0.70;;;0.70;;
38085;SDS011;23896;50.678;10.924;2023-04-01T17:20:29;0.70;;;0.70;;
38085;SDS011;23896;50.678;10.924;2023-04-01T17:33:54;1.08;;;0.98;;
38085;SDS011;23896;50.678;10.924;2023-04-01T17:36:26;1.02;;;0.90;;
38085;SDS011;23896;50.678;10.924;2023-04-01T17:39:01;0.60;;;0.60;;
38085;SDS011;23896;50.678;10.924;2023-04-01T17:44:24;0.70;;;0.70;;
38085;SDS011;23896;50.678;10.924;2023-04-01T17:47:07;0.70;;;0.60;;
38085;SDS011;23896;50.678;10.924;2023-04-01T17:49:41;0.70;;;0.70;;
38085;SDS011;23896;50.678;10.924;2023-04-01T17:52:18;0.60;;;0.60;;
38085;SDS011;23896;50.678;10.924;2023-04-01T17:55:04;0.65;;;0.60;;
38085;SDS011;23896;50.678;10.924;2023-04-01T18:00:03;0.73;;;0.73;;
38085;SDS011;23896;50.678;10.924;2023-04-01T18:02:42;0.65;;;0.65;;
38085;SDS011;23896;50.678;10.924;2023-04-01T18:05:35;0.60;;;0.60;;
38085;SDS011;23896;50.678;10.924;2023-04-01T18:08:26;0.98;;;0.93;;
38085;SDS011;23896;50.678;10.924;2023-04-01T18:11:25;0.60;;;0.60;;
38085;SDS011;23896;50.678;10.924;2023-04-01T18:14:03;0.57;;;0.57;;
38085;SDS011;23896;50.678;10.924;2023-04-01T18:17:02;1.85;;;1.42;;
38085;SDS011;23896;50.678;10.924;2023-04-01T18:19:58;2.10;;;1.90;;
38085;SDS011;23896;50.678;10.924;2023-04-01T18:22:45;1.98;;;1.40;;
38085;SDS011;23896;50.678;10.924;2023-04-01T18:28:38;0.83;;;0.83;;
38085;SDS011;23896;50.678;10.924;2023-04-01T18:34:18;0.80;;;0.80;;
38085;SDS011;23896;50.678;10.924;2023-04-01T18:39:52;0.60;;;0.60;;
38085;SDS011;23896;50.678;10.924;2023-04-01T18:45:51;0.65;;;0.65;;
38085;SDS011;23896;50.678;10.924;2023-04-01T18:54:30;0.82;;;0.82;;
38085;SDS011;23896;50.678;10.924;2023-04-01T18:57:00;1.10;;;1.00;;
38085;SDS011;23896;50.678;10.924;2023-04-01T18:59:36;1.38;;;1.02;;
38085;SDS011;23896;50.678;10.924;2023-04-01T19:05:16;1.47;;;1.23;;
38085;SDS011;23896;50.678;10.924;2023-04-01T19:07:47;1.55;;;1.45;;
38085;SDS011;23896;50.678;10.924;2023-04-01T19:19:28;3.20;;;2.22;;
38085;SDS011;23896;50.678;10.924;2023-04-01T19:21:57;1.90;;;1.60;;
38085;SDS011;23896;50.678;10.924;2023-04-01T19:30:54;1.50;;;1.40;;
38085;SDS011;23896;50.678;10.924;2023-04-01T19:33:31;1.10;;;1.00;;
38085;SDS011;23896;50.678;10.924;2023-04-01T19:36:10;1.15;;;1.15;;
38085;SDS011;23896;50.678;10.924;2023-04-01T19:38:39;1.00;;;1.00;;
38085;SDS011;23896;50.678;10.924;2023-04-01T19:41:19;17.65;;;13.80;;
38085;SDS011;23896;50.678;10.924;2023-04-01T19:44:09;19.77;;;16.20;;
38085;SDS011;23896;50.678;10.924;2023-04-01T19:46:41;24.40;;;17.55;;
38085;SDS011;23896;50.678;10.924;2023-04-01T19:49:14;27.52;;;21.90;;
38085;SDS011;23896;50.678;10.924;2023-04-01T19:51:50;18.48;;;14.85;;
38085;SDS011;23896;50.678;10.924;2023-04-01T19:54:21;14.07;;;9.45;;
38085;SDS011;23896;50.678;10.924;2023-04-01T20:07:51;9.10;;;6.78;;
38085;SDS011;23896;50.678;10.924;2023-04-01T20:10:20;27.67;;;22.83;;
38085;SDS011;23896;50.678;10.924;2023-04-01T20:12:58;17.45;;;13.70;;
38085;SDS011;23896;50.678;10.924;2023-04-01T20:15:35;8.30;;;7.47;;
38085;SDS011;23896;50.678;10.924;2023-04-01T20:18:15;25.75;;;19.45;;
38085;SDS011;23896;50.678;10.924;2023-04-01T20:26:45;21.70;;;17.55;;
38085;SDS011;23896;50.678;10.924;2023-04-01T20:32:28;8.60;;;7.57;;
38085;SDS011;23896;50.678;10.924;2023-04-01T20:35:23;7.13;;;5.85;;
38085;SDS011;23896;50.678;10.924;2023-04-01T20:43:16;10.65;;;8.50;;
38085;SDS011;23896;50.678;10.924;2023-04-01T20:45:57;2.60;;;2.40;;
38085;SDS011;23896;50.678;10.924;2023-04-01T20:51:16;10.48;;;9.00;;
38085;SDS011;23896;50.678;10.924;2023-04-01T20:53:50;25.65;;;20.02;;
38085;SDS011;23896;50.678;10.924;2023-04-01T20:59:52;3.45;;;3.15;;
38085;SDS011;23896;50.678;10.924;2023-04-01T21:07:48;16.48;;;11.82;;
38085;SDS011;23896;50.678;10.924;2023-04-01T21:10:25;20.75;;;15.88;;
38085;SDS011;23896;50.678;10.924;2023-04-01T21:12:57;14.18;;;11.13;;
38085;SDS011;23896;50.678;10.924;2023-04-01T21:15:33;16.98;;;13.20;;
38085;SDS011;23896;50.678;10.924;2023-04-01T21:18:17;17.13;;;14.00;;
38085;SDS011;23896;50.678;10.924;2023-04-01T21:21:20;8.68;;;7.60;;
38085;SDS011;23896;50.678;10.924;2023-04-01T21:32:25;2.53;;;2.05;;
38085;SDS011;23896;50.678;10.924;2023-04-01T21:41:23;2.88;;;2.35;;
38085;SDS011;23896;50.678;10.924;2023-04-01T21:47:22;4.05;;;3.60;;
38085;SDS011;23896;50.678;10.924;2023-04-01T21:50:07;3.90;;;3.10;;
38085;SDS011;23896;50.678;10.924;2023-04-01T21:53:44;6.72;;;5.55;;
38085;SDS011;23896;50.678;10.924;2023-04-01T21:58:26;11.18;;;8.98;;
38085;SDS011;23896;50.678;10.924;2023-04-01T22:13:07;2.22;;;2.03;;
38085;SDS011;23896;50.678;10.924;2023-04-01T22:15:45;3.67;;;3.38;;
38085;SDS011;23896;50.678;10.924;2023-04-01T22:18:19;4.70;;;4.30;;
38085;SDS011;23896;50.678;10.924;2023-04-01T22:30:06;3.85;;;3.50;;
38085;SDS011;23896;50.678;10.924;2023-04-01T22:32:47;2.45;;;2.25;;
38085;SDS011;23896;50.678;10.924;2023-04-01T22:35:22;0.90;;;0.90;;
38085;SDS011;23896;50.678;10.924;2023-04-01T22:37:53;1.55;;;1.45;;
38085;SDS011;23896;50.678;10.924;2023-04-01T22:46:29;1.85;;;1.75;;
38085;SDS011;23896;50.678;10.924;2023-04-01T22:49:01;3.20;;;2.90;;
38085;SDS011;23896;50.678;10.924;2023-04-01T22:51:49;0.90;;;0.90;;
38085;SDS011;23896;50.678;10.924;2023-04-01T23:00:36;0.88;;;0.88;;
38085;SDS011;23896;50.678;10.924;2023-04-01T23:06:09;3.22;;;1.10;;
38085;SDS011;23896;50.678;10.924;2023-04-01T23:08:42;1.65;;;1.55;;
38085;SDS011;23896;50.678;10.924;2023-04-01T23:11:15;1.63;;;1.52;;
38085;SDS011;23896;50.678;10.924;2023-04-01T23:13:50;2.35;;;1.70;;
38085;SDS011;23896;50.678;10.924;2023-04-01T23:16:24;1.40;;;1.30;;
38085;SDS011;23896;50.678;10.924;2023-04-01T23:18:58;1.35;;;1.25;;
38085;SDS011;23896;50.678;10.924;2023-04-01T23:21:32;1.98;;;1.88;;
38085;SDS011;23896;50.678;10.924;2023-04-01T23:33:34;2.47;;;2.10;;
38085;SDS011;23896;50.678;10.924;2023-04-01T23:36:18;2.30;;;2.08;;
38085;SDS011;23896;50.678;10.924;2023-04-01T23:39:06;2.17;;;1.92;;
38085;SDS011;23896;50.678;10.924;2023-04-01T23:41:37;1.70;;;1.60;;
38085;SDS011;23896;50.678;10.924;2023-04-01T23:44:08;1.85;;;1.42;;
38085;SDS011;23896;50.678;10.924;2023-04-01T23:46:37;1.50;;;1.40;;
38085;SDS011;23896;50.678;10.924;2023-04-01T23:49:05;1.70;;;1.60;;
38085;SDS011;23896;50.678;10.924;2023-04-01T23:51:37;1.70;;;1.60;;
38085;SDS011;23896;50.678;10.924;2023-04-01T23:54:11;1.50;;;1.40;;
38085;SDS011;23896;50.678;10.924;2023-04-01T23:56:41;1.52;;;1.42;;
38085;SDS011;23896;50.678;10.924;2023-04-01T23:59:11;1.35;;;1.25;;
